createdAt,value
2018-09-30T00:01:34.590Z,17.30
2018-09-30T00:04:04.894Z,17.30
2018-09-30T00:06:35.185Z,17.30
2018-09-30T00:09:07.990Z,17.30
2018-09-30T00:11:38.461Z,17.30
2018-09-30T00:14:08.734Z,17.30
2018-09-30T00:16:39.205Z,17.30
2018-09-30T00:19:09.519Z,17.30
2018-09-30T00:21:39.810Z,17.30
2018-09-30T00:24:15.390Z,17.30
2018-09-30T00:26:51.065Z,17.30
2018-09-30T00:29:21.350Z,17.30
2018-09-30T00:31:51.657Z,17.30
2018-09-30T00:34:25.958Z,17.20
2018-09-30T00:36:58.392Z,17.30
2018-09-30T00:39:28.934Z,17.20
2018-09-30T00:41:59.240Z,17.20
2018-09-30T00:44:29.501Z,17.20
2018-09-30T00:46:59.824Z,17.20
2018-09-30T00:49:30.109Z,17.20
2018-09-30T00:52:00.425Z,17.10
2018-09-30T00:54:30.750Z,17.10
2018-09-30T00:57:01.063Z,17.00
2018-09-30T00:59:31.368Z,17.00
2018-09-30T01:02:01.670Z,17.00
2018-09-30T01:04:31.954Z,17.00
2018-09-30T01:07:02.268Z,17.00
2018-09-30T01:09:32.549Z,17.00
2018-09-30T01:12:02.854Z,17.00
2018-09-30T01:14:33.137Z,17.00
2018-09-30T01:17:03.454Z,17.00
2018-09-30T01:19:33.759Z,17.00
2018-09-30T01:22:04.086Z,17.00
2018-09-30T01:24:34.377Z,16.90
2018-09-30T01:27:04.645Z,16.90
2018-09-30T01:29:34.933Z,16.90
2018-09-30T01:32:05.223Z,16.90
2018-09-30T01:34:35.574Z,16.80
2018-09-30T01:37:05.940Z,16.90
2018-09-30T01:39:36.190Z,16.80
2018-09-30T01:42:06.535Z,16.80
2018-09-30T01:44:36.750Z,16.80
2018-09-30T01:47:07.018Z,16.70
2018-09-30T01:49:37.334Z,16.70
2018-09-30T01:52:24.814Z,16.70
2018-09-30T01:54:55.044Z,16.70
2018-09-30T01:57:25.537Z,16.70
2018-09-30T01:59:58.789Z,16.70
2018-09-30T02:02:29.044Z,16.70
2018-09-30T02:04:59.473Z,16.70
2018-09-30T02:07:29.756Z,16.70
2018-09-30T02:10:06.293Z,16.60
2018-09-30T02:12:36.690Z,16.60
2018-09-30T02:15:07.391Z,16.70
2018-09-30T02:17:37.681Z,16.60
2018-09-30T02:20:07.966Z,16.70
2018-09-30T02:22:38.225Z,16.60
2018-09-30T02:25:08.465Z,16.60
2018-09-30T02:27:38.741Z,16.70
2018-09-30T02:30:09.110Z,16.70
2018-09-30T02:32:39.358Z,16.60
2018-09-30T02:35:09.597Z,16.70
2018-09-30T02:37:39.868Z,16.70
2018-09-30T02:40:10.629Z,16.60
2018-09-30T02:42:40.863Z,16.60
2018-09-30T02:45:11.099Z,16.60
2018-09-30T02:47:41.335Z,16.50
2018-09-30T02:50:11.569Z,16.50
2018-09-30T02:52:41.800Z,16.50
2018-09-30T02:55:12.049Z,16.40
2018-09-30T02:57:42.273Z,16.40
2018-09-30T03:00:12.530Z,16.30
2018-09-30T03:02:42.794Z,16.30
2018-09-30T03:05:13.058Z,16.30
2018-09-30T03:07:48.314Z,16.20
2018-09-30T03:10:18.568Z,16.20
2018-09-30T03:12:48.798Z,16.20
2018-09-30T03:15:19.085Z,16.20
2018-09-30T03:17:49.315Z,16.10
2018-09-30T03:20:19.555Z,16.10
2018-09-30T03:22:49.792Z,16.10
2018-09-30T03:25:20.042Z,16.10
2018-09-30T03:27:50.256Z,16.10
2018-09-30T03:30:20.500Z,16.10
2018-09-30T03:32:50.729Z,16.10
2018-09-30T03:35:20.981Z,16.10
2018-09-30T03:37:51.234Z,16.10
2018-09-30T03:40:21.470Z,16.00
2018-09-30T03:42:51.693Z,16.10
2018-09-30T03:45:21.939Z,16.10
2018-09-30T03:47:52.166Z,16.10
2018-09-30T03:50:22.414Z,16.10
2018-09-30T03:52:52.638Z,16.10
2018-09-30T03:55:22.923Z,16.10
2018-09-30T03:57:53.146Z,16.10
2018-09-30T04:00:23.394Z,16.10
2018-09-30T04:02:53.633Z,16.10
2018-09-30T04:05:23.886Z,16.20
2018-09-30T04:07:54.122Z,16.20
2018-09-30T04:10:24.375Z,16.10
2018-09-30T04:12:54.578Z,16.10
2018-09-30T04:15:24.869Z,16.10
2018-09-30T04:17:55.186Z,16.10
2018-09-30T04:20:25.499Z,16.20
2018-09-30T04:22:55.793Z,16.10
2018-09-30T04:25:26.158Z,16.10
2018-09-30T04:27:56.440Z,16.10
2018-09-30T04:30:26.747Z,16.10
2018-09-30T04:32:57.062Z,16.00
2018-09-30T04:35:27.426Z,16.00
2018-09-30T04:37:57.714Z,16.00
2018-09-30T04:40:28.022Z,16.00
2018-09-30T04:42:58.308Z,16.00
2018-09-30T04:45:28.614Z,16.00
2018-09-30T04:47:58.914Z,16.00
2018-09-30T04:50:29.281Z,16.00
2018-09-30T04:52:59.557Z,16.00
2018-09-30T04:55:29.975Z,16.00
2018-09-30T04:58:00.374Z,16.00
2018-09-30T05:00:30.774Z,16.00
2018-09-30T05:03:01.071Z,16.00
2018-09-30T05:05:31.427Z,16.00
2018-09-30T05:08:02.081Z,16.00
2018-09-30T05:10:32.387Z,16.00
2018-09-30T05:13:02.917Z,16.00
2018-09-30T05:15:33.525Z,16.00
2018-09-30T05:18:03.882Z,16.00
2018-09-30T05:20:34.204Z,16.00
2018-09-30T05:23:04.538Z,16.00
2018-09-30T05:25:34.855Z,16.00
2018-09-30T05:28:05.380Z,16.00
2018-09-30T05:30:35.710Z,15.90
2018-09-30T05:33:05.999Z,15.90
2018-09-30T05:35:36.310Z,15.90
2018-09-30T05:38:06.609Z,15.90
2018-09-30T05:40:36.969Z,15.90
2018-09-30T05:43:07.331Z,15.90
2018-09-30T05:45:37.635Z,15.90
2018-09-30T05:48:08.025Z,15.90
2018-09-30T05:50:38.322Z,15.90
2018-09-30T05:53:08.625Z,15.90
2018-09-30T05:55:38.939Z,15.80
2018-09-30T05:58:09.579Z,15.80
2018-09-30T06:00:39.775Z,15.80
2018-09-30T06:03:10.081Z,15.80
2018-09-30T06:05:40.392Z,15.70
2018-09-30T06:08:10.741Z,15.70
2018-09-30T06:10:41.033Z,15.70
2018-09-30T06:13:11.350Z,15.70
2018-09-30T06:15:41.659Z,15.70
2018-09-30T06:18:11.986Z,15.70
2018-09-30T06:20:42.274Z,15.80
2018-09-30T06:23:12.607Z,15.70
2018-09-30T06:25:42.921Z,15.80
2018-09-30T06:28:13.237Z,15.80
2018-09-30T06:30:43.707Z,15.80
2018-09-30T06:33:14.043Z,15.90
2018-09-30T06:35:44.470Z,15.90
2018-09-30T06:38:14.781Z,15.90
2018-09-30T06:40:45.078Z,15.90
2018-09-30T06:43:15.402Z,15.90
2018-09-30T06:45:45.705Z,16.00
2018-09-30T06:48:16.037Z,16.00
2018-09-30T06:50:46.430Z,16.00
2018-09-30T06:53:16.673Z,16.00
2018-09-30T06:55:46.939Z,16.10
2018-09-30T06:58:17.550Z,16.10
2018-09-30T07:00:47.872Z,16.10
2018-09-30T07:03:18.157Z,16.20
2018-09-30T07:05:48.446Z,16.20
2018-09-30T07:08:18.770Z,16.30
2018-09-30T07:10:49.072Z,16.40
2018-09-30T07:13:19.430Z,16.40
2018-09-30T07:15:49.767Z,16.50
2018-09-30T07:18:20.021Z,16.50
2018-09-30T07:20:50.284Z,16.60
2018-09-30T07:23:20.552Z,16.70
2018-09-30T07:25:50.907Z,16.80
2018-09-30T07:28:21.159Z,16.80
2018-09-30T07:30:51.470Z,16.90
2018-09-30T07:33:21.746Z,17.00
2018-09-30T07:35:51.990Z,17.10
2018-09-30T07:38:22.233Z,17.20
2018-09-30T07:40:52.482Z,17.20
2018-09-30T07:43:22.753Z,17.30
2018-09-30T07:45:52.997Z,17.40
2018-09-30T07:48:23.287Z,17.50
2018-09-30T07:50:53.511Z,17.60
2018-09-30T07:53:23.768Z,17.70
2018-09-30T07:55:55.386Z,17.80
2018-09-30T07:58:25.652Z,17.90
2018-09-30T08:00:55.889Z,17.90
2018-09-30T08:03:26.169Z,18.00
2018-09-30T08:05:56.412Z,18.10
2018-09-30T08:08:26.665Z,18.20
2018-09-30T08:10:56.900Z,18.30
2018-09-30T08:13:27.145Z,18.40
2018-09-30T08:15:57.371Z,18.50
2018-09-30T08:18:27.709Z,18.60
2018-09-30T08:20:58.013Z,18.70
2018-09-30T08:23:28.333Z,18.80
2018-09-30T08:25:58.621Z,18.90
2018-09-30T08:28:28.927Z,19.10
2018-09-30T08:30:59.220Z,19.20
2018-09-30T08:33:29.535Z,19.30
2018-09-30T08:36:05.141Z,19.50
2018-09-30T08:38:36.388Z,19.70
2018-09-30T08:41:08.055Z,19.80
2018-09-30T08:43:41.044Z,20.00
2018-09-30T08:46:11.357Z,20.20
2018-09-30T08:48:41.682Z,20.40
2018-09-30T08:51:11.949Z,20.60
2018-09-30T08:53:42.285Z,20.80
2018-09-30T08:56:12.630Z,21.00
2018-09-30T08:58:42.886Z,21.20
2018-09-30T09:01:13.207Z,21.40
2018-09-30T09:03:43.521Z,21.60
2018-09-30T09:06:13.822Z,21.80
2018-09-30T09:08:44.144Z,22.00
2018-09-30T09:11:14.458Z,22.20
2018-09-30T09:13:44.779Z,22.40
2018-09-30T09:16:15.090Z,22.50
2018-09-30T09:18:45.403Z,22.70
2018-09-30T09:21:15.713Z,22.80
2018-09-30T09:23:46.023Z,22.90
2018-09-30T09:26:16.334Z,23.00
2018-09-30T09:28:46.634Z,23.00
2018-09-30T09:31:17.010Z,23.10
2018-09-30T09:33:47.313Z,23.10
2018-09-30T09:36:17.690Z,23.10
2018-09-30T09:38:48.001Z,23.10
2018-09-30T09:41:18.322Z,23.10
2018-09-30T09:43:48.615Z,23.20
2018-09-30T09:46:18.937Z,23.20
2018-09-30T09:48:49.227Z,23.30
2018-09-30T09:51:19.549Z,23.50
2018-09-30T09:53:49.883Z,23.70
2018-09-30T09:56:20.193Z,23.90
2018-09-30T09:58:50.678Z,24.10
2018-09-30T10:01:20.933Z,24.30
2018-09-30T10:03:51.222Z,24.60
2018-09-30T10:06:21.580Z,24.90
2018-09-30T10:08:51.821Z,25.10
2018-09-30T10:11:22.141Z,25.40
2018-09-30T10:13:52.439Z,25.70
2018-09-30T10:16:22.748Z,25.90
2018-09-30T10:18:52.997Z,26.10
2018-09-30T10:21:23.267Z,26.40
2018-09-30T10:23:53.534Z,26.60
2018-09-30T10:26:23.962Z,26.80
2018-09-30T10:28:54.193Z,27.10
2018-09-30T10:31:24.430Z,27.20
2018-09-30T10:33:54.635Z,27.40
2018-09-30T10:36:24.892Z,27.50
2018-09-30T10:38:55.264Z,27.50
2018-09-30T10:41:25.380Z,27.50
2018-09-30T10:43:55.627Z,27.40
2018-09-30T10:46:25.873Z,27.40
2018-09-30T10:48:56.111Z,27.30
2018-09-30T10:51:26.358Z,27.20
2018-09-30T10:53:56.591Z,27.10
2018-09-30T10:56:26.859Z,26.90
2018-09-30T10:58:57.178Z,26.80
2018-09-30T11:01:27.431Z,26.60
2018-09-30T11:03:57.650Z,26.50
2018-09-30T11:06:28.746Z,26.40
2018-09-30T11:08:58.987Z,26.30
2018-09-30T11:11:29.256Z,26.20
2018-09-30T11:13:59.452Z,26.10
2018-09-30T11:16:30.387Z,26.10
2018-09-30T11:19:00.706Z,25.90
2018-09-30T11:21:31.025Z,25.80
2018-09-30T11:24:01.320Z,25.70
2018-09-30T11:26:31.626Z,25.60
2018-09-30T11:29:01.912Z,25.50
2018-09-30T11:31:32.214Z,25.50
2018-09-30T11:34:02.507Z,25.50
2018-09-30T11:36:33.419Z,25.50
2018-09-30T11:39:03.941Z,25.50
2018-09-30T11:41:34.259Z,25.50
2018-09-30T11:44:04.566Z,25.40
2018-09-30T11:46:35.545Z,25.40
2018-09-30T11:49:06.185Z,25.20
2018-09-30T11:51:36.546Z,25.10
2018-09-30T11:54:06.842Z,25.00
2018-09-30T11:56:37.160Z,24.80
2018-09-30T11:59:07.435Z,24.70
2018-09-30T12:01:37.836Z,24.60
2018-09-30T12:04:08.371Z,24.50
2018-09-30T12:06:39.568Z,24.40
2018-09-30T12:09:10.358Z,24.30
2018-09-30T12:11:40.645Z,24.20
2018-09-30T12:14:10.969Z,24.10
2018-09-30T12:16:41.232Z,24.00
2018-09-30T12:19:11.729Z,23.90
2018-09-30T12:21:41.994Z,23.80
2018-09-30T12:24:12.851Z,23.70
2018-09-30T12:26:43.085Z,23.60
2018-09-30T12:29:13.358Z,23.60
2018-09-30T12:31:43.621Z,23.50
2018-09-30T12:34:13.855Z,23.40
2018-09-30T12:36:44.062Z,23.40
2018-09-30T12:39:14.347Z,23.30
2018-09-30T12:41:44.544Z,23.30
2018-09-30T12:44:14.762Z,23.20
2018-09-30T12:46:45.026Z,23.20
2018-09-30T12:49:15.275Z,23.20
2018-09-30T12:51:45.501Z,23.10
2018-09-30T12:54:16.403Z,23.10
2018-09-30T12:56:46.674Z,23.10
2018-09-30T12:59:16.932Z,23.00
2018-09-30T13:01:47.157Z,23.00
2018-09-30T13:04:17.390Z,23.00
2018-09-30T13:06:48.893Z,23.00
2018-09-30T13:09:19.139Z,23.00
2018-09-30T13:11:49.442Z,23.00
2018-09-30T13:14:19.714Z,23.00
2018-09-30T13:16:49.929Z,23.00
2018-09-30T13:19:20.229Z,23.00
2018-09-30T13:21:50.449Z,23.00
2018-09-30T13:24:20.701Z,23.00
2018-09-30T13:26:50.938Z,23.00
2018-09-30T13:29:21.864Z,23.00
2018-09-30T13:31:52.545Z,23.10
2018-09-30T13:34:22.775Z,23.10
2018-09-30T13:36:52.994Z,23.10
2018-09-30T13:39:23.254Z,23.10
2018-09-30T13:41:53.502Z,23.10
2018-09-30T13:44:23.963Z,23.10
2018-09-30T13:46:54.220Z,23.10
2018-09-30T13:49:24.458Z,23.10
2018-09-30T13:51:54.721Z,23.10
2018-09-30T13:54:24.952Z,23.20
2018-09-30T13:56:55.214Z,23.20
2018-09-30T13:59:25.447Z,23.20
2018-09-30T14:01:55.703Z,23.20
2018-09-30T14:04:25.923Z,23.20
2018-09-30T14:06:56.166Z,23.20
2018-09-30T14:09:26.366Z,23.20
2018-09-30T14:11:56.617Z,23.10
2018-09-30T14:14:26.843Z,23.10
2018-09-30T14:16:57.109Z,23.10
2018-09-30T14:19:27.366Z,23.10
2018-09-30T14:21:57.682Z,23.10
2018-09-30T14:24:27.913Z,23.00
2018-09-30T14:26:58.238Z,23.00
2018-09-30T14:29:28.430Z,23.00
2018-09-30T14:31:58.730Z,23.00
2018-09-30T14:34:29.072Z,23.00
2018-09-30T14:36:59.334Z,23.00
2018-09-30T14:39:30.823Z,23.00
2018-09-30T14:42:01.058Z,22.90
2018-09-30T14:44:31.309Z,22.90
2018-09-30T14:47:01.558Z,22.90
2018-09-30T14:49:31.806Z,22.90
2018-09-30T14:52:02.054Z,22.90
2018-09-30T14:54:32.440Z,22.90
2018-09-30T14:57:02.598Z,22.80
2018-09-30T14:59:33.113Z,22.80
2018-09-30T15:02:10.094Z,22.80
2018-09-30T15:04:40.341Z,22.80
2018-09-30T15:07:10.589Z,22.80
2018-09-30T15:09:41.021Z,22.80
2018-09-30T15:12:11.270Z,22.70
2018-09-30T15:14:41.941Z,22.70
2018-09-30T15:17:12.330Z,22.70
2018-09-30T15:19:42.673Z,22.70
2018-09-30T15:22:12.957Z,22.70
2018-09-30T15:24:43.473Z,22.60
2018-09-30T15:27:13.766Z,22.60
2018-09-30T15:29:44.130Z,22.70
2018-09-30T15:32:14.434Z,22.60
2018-09-30T15:34:44.762Z,22.60
2018-09-30T15:37:15.066Z,22.60
2018-09-30T15:39:46.209Z,22.60
2018-09-30T15:42:16.544Z,22.60
2018-09-30T15:44:46.962Z,22.60
2018-09-30T15:47:17.310Z,22.60
2018-09-30T15:49:47.627Z,22.60
2018-09-30T15:52:17.938Z,22.60
2018-09-30T15:54:48.226Z,22.50
2018-09-30T15:57:18.561Z,22.50
2018-09-30T15:59:48.873Z,22.50
2018-09-30T16:02:19.185Z,22.50
2018-09-30T16:04:49.467Z,22.50
2018-09-30T16:07:19.790Z,22.50
2018-09-30T16:09:50.056Z,22.50
2018-09-30T16:12:20.370Z,22.50
2018-09-30T16:14:50.691Z,22.50
2018-09-30T16:17:21.003Z,22.50
2018-09-30T16:19:51.263Z,22.50
2018-09-30T16:22:21.496Z,22.40
2018-09-30T16:24:51.737Z,22.40
2018-09-30T16:27:21.994Z,22.40
2018-09-30T16:29:52.217Z,22.40
2018-09-30T16:32:22.502Z,22.40
2018-09-30T16:34:52.702Z,22.40
2018-09-30T16:37:23.042Z,22.30
2018-09-30T16:39:53.318Z,22.30
2018-09-30T16:42:23.660Z,22.30
2018-09-30T16:44:53.962Z,22.30
2018-09-30T16:47:24.269Z,22.30
2018-09-30T16:49:54.590Z,22.20
2018-09-30T16:52:24.873Z,22.20
2018-09-30T16:54:55.361Z,22.20
2018-09-30T16:57:25.718Z,22.20
2018-09-30T16:59:56.027Z,22.10
2018-09-30T17:02:26.337Z,22.10
2018-09-30T17:04:56.672Z,22.10
2018-09-30T17:07:27.018Z,22.00
2018-09-30T17:09:57.323Z,22.00
2018-09-30T17:12:27.780Z,21.90
2018-09-30T17:14:58.110Z,21.90
2018-09-30T17:17:28.410Z,21.90
2018-09-30T17:19:58.654Z,21.90
2018-09-30T17:22:28.928Z,21.90
2018-09-30T17:24:59.206Z,21.80
2018-09-30T17:27:30.885Z,21.80
2018-09-30T17:30:01.833Z,21.80
2018-09-30T17:32:32.191Z,21.80
2018-09-30T17:35:02.478Z,21.80
2018-09-30T17:37:33.080Z,21.70
2018-09-30T17:40:03.733Z,21.70
2018-09-30T17:42:34.511Z,21.70
2018-09-30T17:45:06.723Z,21.60
2018-09-30T17:47:37.064Z,21.60
2018-09-30T17:50:08.282Z,21.50
2018-09-30T17:52:38.574Z,21.50
2018-09-30T17:55:08.878Z,21.50
2018-09-30T17:57:39.191Z,21.50
2018-09-30T18:00:09.538Z,21.40
2018-09-30T18:02:39.862Z,21.40
2018-09-30T18:05:10.089Z,21.40
2018-09-30T18:07:40.634Z,21.30
2018-09-30T18:10:11.419Z,21.30
2018-09-30T18:12:42.166Z,21.20
2018-09-30T18:15:12.434Z,21.20
2018-09-30T18:17:43.441Z,21.10
2018-09-30T18:20:14.274Z,21.10
2018-09-30T18:22:44.578Z,21.10
2018-09-30T18:25:15.098Z,21.10
2018-09-30T18:27:45.347Z,21.00
2018-09-30T18:30:15.854Z,21.00
2018-09-30T18:32:46.542Z,21.00
2018-09-30T18:35:17.066Z,20.90
2018-09-30T18:37:47.351Z,20.90
2018-09-30T18:40:17.726Z,20.90
2018-09-30T18:42:48.465Z,20.90
2018-09-30T18:45:18.699Z,20.80
2018-09-30T18:47:49.128Z,20.80
2018-09-30T18:50:19.341Z,20.80
2018-09-30T18:52:49.546Z,20.80
2018-09-30T18:55:19.789Z,20.80
2018-09-30T18:57:50.038Z,20.80
2018-09-30T19:00:20.258Z,20.70
2018-09-30T19:02:50.805Z,20.70
2018-09-30T19:05:21.024Z,20.70
2018-09-30T19:07:51.287Z,20.70
2018-09-30T19:10:21.520Z,20.60
2018-09-30T19:12:51.855Z,20.60
2018-09-30T19:15:22.566Z,20.50
2018-09-30T19:17:52.777Z,20.50
2018-09-30T19:20:23.075Z,20.50
2018-09-30T19:22:53.483Z,20.40
2018-09-30T19:25:23.902Z,20.40
2018-09-30T19:27:54.323Z,20.40
2018-09-30T19:30:24.603Z,20.40
2018-09-30T19:32:54.922Z,20.30
2018-09-30T19:35:25.299Z,20.40
2018-09-30T19:37:55.669Z,20.40
2018-09-30T19:40:25.969Z,20.40
2018-09-30T19:42:56.250Z,20.40
2018-09-30T19:45:26.562Z,20.30
2018-09-30T19:47:56.854Z,20.40
2018-09-30T19:50:27.154Z,20.40
2018-09-30T19:52:57.448Z,20.30
2018-09-30T19:55:27.754Z,20.40
2018-09-30T19:57:58.055Z,20.40
2018-09-30T20:00:28.745Z,20.40
2018-09-30T20:02:59.030Z,20.40
2018-09-30T20:05:29.337Z,20.40
2018-09-30T20:07:59.626Z,20.40
2018-09-30T20:10:29.937Z,20.40
2018-09-30T20:13:00.254Z,20.40
2018-09-30T20:15:30.560Z,20.40
2018-09-30T20:18:00.815Z,20.40
2018-09-30T20:20:31.146Z,20.40
2018-09-30T20:23:01.428Z,20.40
2018-09-30T20:25:31.819Z,20.40
2018-09-30T20:28:02.300Z,20.40
2018-09-30T20:30:32.611Z,20.40
2018-09-30T20:33:02.927Z,20.40
2018-09-30T20:35:33.249Z,20.40
2018-09-30T20:38:03.539Z,20.40
2018-09-30T20:40:38.565Z,20.40
2018-09-30T20:43:08.857Z,20.40
2018-09-30T20:45:39.710Z,20.40
2018-09-30T20:48:10.321Z,20.40
2018-09-30T20:50:40.641Z,20.40
2018-09-30T20:53:10.919Z,20.40
2018-09-30T20:55:41.234Z,20.40
2018-09-30T20:58:11.506Z,20.40
2018-09-30T21:00:41.800Z,20.40
2018-09-30T21:03:12.154Z,20.30
2018-09-30T21:06:24.702Z,20.30
2018-09-30T21:08:54.986Z,20.30
2018-09-30T21:11:25.298Z,20.20
2018-09-30T21:13:55.572Z,20.20
2018-09-30T21:16:26.106Z,20.20
2018-09-30T21:18:56.352Z,20.20
2018-09-30T21:21:26.594Z,20.20
2018-09-30T21:23:57.013Z,20.20
2018-09-30T21:26:27.314Z,20.20
2018-09-30T21:28:57.550Z,20.20
2018-09-30T21:31:27.836Z,20.20
2018-09-30T21:33:58.054Z,20.20
2018-09-30T21:36:28.304Z,20.20
2018-09-30T21:38:58.553Z,20.20
2018-09-30T21:41:28.811Z,20.20
2018-09-30T21:43:59.053Z,20.20
2018-09-30T21:46:29.345Z,20.20
2018-09-30T21:48:59.560Z,20.20
2018-09-30T21:51:29.790Z,20.20
2018-09-30T21:54:00.035Z,20.20
2018-09-30T21:56:30.309Z,20.20
2018-09-30T21:59:00.536Z,20.20
2018-09-30T22:01:30.804Z,20.10
2018-09-30T22:04:00.990Z,20.10
2018-09-30T22:06:31.234Z,20.00
2018-09-30T22:09:01.470Z,19.90
2018-09-30T22:11:31.811Z,19.90
2018-09-30T22:14:02.033Z,19.80
2018-09-30T22:16:32.286Z,19.80
2018-09-30T22:19:02.593Z,19.70
2018-09-30T22:21:32.939Z,19.70
2018-09-30T22:24:03.198Z,19.70
2018-09-30T22:26:33.529Z,19.70
2018-09-30T22:29:03.863Z,19.70
2018-09-30T22:31:34.171Z,19.70
2018-09-30T22:34:04.442Z,19.60
2018-09-30T22:36:34.762Z,19.60
2018-09-30T22:39:06.706Z,19.60
2018-09-30T22:41:37.037Z,19.60
2018-09-30T22:44:07.318Z,19.50
2018-09-30T22:46:37.598Z,19.60
2018-09-30T22:49:07.943Z,19.50
2018-09-30T22:51:38.255Z,19.50
2018-09-30T22:54:08.515Z,19.50
2018-09-30T22:56:38.814Z,19.50
2018-09-30T22:59:09.100Z,19.50
2018-09-30T23:01:39.446Z,19.50
2018-09-30T23:04:09.734Z,19.50
2018-09-30T23:06:40.034Z,19.50
2018-09-30T23:09:10.333Z,19.40
2018-09-30T23:11:40.614Z,19.40
2018-09-30T23:14:10.899Z,19.40
2018-09-30T23:16:41.201Z,19.50
2018-09-30T23:19:11.458Z,19.40
2018-09-30T23:21:41.710Z,19.40
2018-09-30T23:24:11.952Z,19.40
2018-09-30T23:26:42.385Z,19.40
2018-09-30T23:29:12.785Z,19.30
2018-09-30T23:31:43.037Z,19.30
2018-09-30T23:34:13.267Z,19.30
2018-09-30T23:36:43.539Z,19.30
2018-09-30T23:39:14.295Z,19.20
2018-09-30T23:41:44.541Z,19.20
2018-09-30T23:44:15.050Z,19.20
2018-09-30T23:46:45.285Z,19.20
2018-09-30T23:49:15.512Z,19.20
2018-09-30T23:51:45.789Z,19.10
2018-09-30T23:54:16.018Z,19.20
2018-09-30T23:56:46.261Z,19.10
2018-09-30T23:59:16.494Z,19.20
